KR-0403 weather

53rd ROK Army Division 125th Regiment Heliport
Busan (Yeoung-do), Busan Gwang'yeogsi, South Korea

Public forecast

Using degrees Celsius for public forecast. Weather courtesy of forecast.io.

METAR (pilot weather report)

Closest report is Gimhae International Airport, 9.8 nm (18.2 km) NW. Retrieved 2019/07/21 18:00 UTC (50 minutes ago):

RKPK 211800Z 20006KT CAVOK 24/22 Q1007

TAF (pilot weather forecast)

Closest forecast is Gimhae International Airport, 9.8 nm (18.2 km) NW. Retrieved 2019/07/21 18:00 UTC (50 minutes ago):

TAF RKPK 211700Z 2118/2224 33006KT 9999 SCT030 TN22/2121Z TX30/2206Z BECMG 2201/2202 18008KT